SIA179 OPKC-VNKT
Flight info
| Callsign | SIA179 |
|---|---|
| Flight time | 2h 16m |
| Altitude | 35000 |
| Route | DANGI G472 TELEM A791 PRA J52 GWA/N0453F270 J37 KCH W40 LKN G598 SMR |
| Aircraft | B738/M-SDE2E3FGHIRWXY/LB1 |
Departure
| Time | 2026-05-06 09:08 |
|---|---|
| Airport | Jinnah International Airport (OPKC) |
Arrival
| Time | 2026-05-06 11:25 |
|---|---|
| Airport | Tribhuvan International Airport (VNKT) |
| Time | Latitude | Longitude | Altitude | Speed | Heading |
|---|---|---|---|---|---|
| 2026-05-06 08:42 | 24.90294 | 67.16844 | 100 ft | 0 kts | 125° |
| 2026-05-06 08:59 | 24.90295 | 67.16842 | 99 ft | 3 kts | 125° |
| 2026-05-06 09:00 | 24.90310 | 67.16819 | 99 ft | 4 kts | 123° |
| 2026-05-06 09:00 | 24.90325 | 67.16794 | 99 ft | 4 kts | 121° |
| 2026-05-06 09:00 | 24.90338 | 67.16768 | 100 ft | 4 kts | 117° |
| 2026-05-06 09:00 | 24.90348 | 67.16741 | 99 ft | 4 kts | 97° |
| 2026-05-06 09:01 | 24.90348 | 67.16722 | 100 ft | 4 kts | 19° |
| 2026-05-06 09:01 | 24.90347 | 67.16721 | 100 ft | 1 kts | 345° |
| 2026-05-06 09:04 | 24.90369 | 67.16714 | 99 ft | 6 kts | 345° |
| 2026-05-06 09:04 | 24.90412 | 67.16702 | 100 ft | 6 kts | 345° |
| 2026-05-06 09:04 | 24.90450 | 67.16701 | 101 ft | 5 kts | 18° |
| 2026-05-06 09:04 | 24.90477 | 67.16727 | 101 ft | 7 kts | 53° |
| 2026-05-06 09:05 | 24.90497 | 67.16786 | 101 ft | 10 kts | 74° |
| 2026-05-06 09:05 | 24.90517 | 67.16858 | 101 ft | 10 kts | 74° |
| 2026-05-06 09:05 | 24.90535 | 67.16929 | 101 ft | 9 kts | 74° |
| 2026-05-06 09:05 | 24.90552 | 67.16997 | 101 ft | 9 kts | 74° |
| 2026-05-06 09:06 | 24.90569 | 67.17063 | 101 ft | 9 kts | 74° |
| 2026-05-06 09:06 | 24.90587 | 67.17133 | 101 ft | 10 kts | 74° |
| 2026-05-06 09:06 | 24.90607 | 67.17210 | 101 ft | 11 kts | 73° |
| 2026-05-06 09:06 | 24.90628 | 67.17294 | 99 ft | 12 kts | 75° |
| 2026-05-06 09:07 | 24.90657 | 67.17383 | 100 ft | 13 kts | 62° |
| 2026-05-06 09:07 | 24.90716 | 67.17443 | 102 ft | 10 kts | 31° |
| 2026-05-06 09:07 | 24.90768 | 67.17476 | 103 ft | 9 kts | 27° |
| 2026-05-06 09:07 | 24.90844 | 67.17479 | 105 ft | 14 kts | 329° |
| 2026-05-06 09:08 | 24.90821 | 67.17285 | 106 ft | 58 kts | 255° |
| 2026-05-06 09:08 | 24.90650 | 67.16598 | 104 ft | 129 kts | 254° |
| 2026-05-06 09:08 | 24.90344 | 67.15458 | 318 ft | 169 kts | 252° |
| 2026-05-06 09:08 | 24.90008 | 67.14131 | 799 ft | 197 kts | 251° |
| 2026-05-06 09:09 | 24.89575 | 67.12700 | 1667 ft | 195 kts | 240° |
| 2026-05-06 09:09 | 24.88507 | 67.11672 | 1945 ft | 222 kts | 200° |
| 2026-05-06 09:09 | 24.86934 | 67.11716 | 2274 ft | 241 kts | 160° |
| 2026-05-06 09:09 | 24.85609 | 67.12912 | 2691 ft | 255 kts | 127° |
| 2026-05-06 09:10 | 24.84948 | 67.14713 | 3168 ft | 259 kts | 104° |
| 2026-05-06 09:10 | 24.84567 | 67.16675 | 3634 ft | 264 kts | 103° |
| 2026-05-06 09:10 | 24.84202 | 67.18660 | 4213 ft | 265 kts | 102° |
| 2026-05-06 09:10 | 24.83840 | 67.20665 | 4846 ft | 268 kts | 102° |
| 2026-05-06 09:11 | 24.83479 | 67.22670 | 5612 ft | 266 kts | 102° |
| 2026-05-06 09:11 | 24.83119 | 67.24680 | 6310 ft | 268 kts | 101° |
| 2026-05-06 09:11 | 24.82754 | 67.26704 | 6738 ft | 270 kts | 101° |
| 2026-05-06 09:11 | 24.82379 | 67.28744 | 6833 ft | 274 kts | 102° |
| 2026-05-06 09:12 | 24.82008 | 67.30784 | 6826 ft | 274 kts | 101° |
| 2026-05-06 09:12 | 24.81640 | 67.32840 | 6828 ft | 273 kts | 101° |
| 2026-05-06 09:12 | 24.81258 | 67.34949 | 6863 ft | 293 kts | 101° |
| 2026-05-06 09:12 | 24.80842 | 67.37254 | 6872 ft | 321 kts | 101° |
| 2026-05-06 09:13 | 24.80376 | 67.39760 | 6861 ft | 343 kts | 104° |
| 2026-05-06 09:13 | 24.79492 | 67.42169 | 6842 ft | 341 kts | 120° |
| 2026-05-06 09:13 | 24.78307 | 67.44446 | 6834 ft | 344 kts | 120° |
| 2026-05-06 09:13 | 24.77101 | 67.46741 | 6825 ft | 347 kts | 120° |
| 2026-05-06 09:14 | 24.75899 | 67.49051 | 6823 ft | 348 kts | 120° |
| 2026-05-06 09:14 | 24.74708 | 67.51373 | 6824 ft | 348 kts | 120° |
| 2026-05-06 09:14 | 24.73531 | 67.53691 | 6828 ft | 346 kts | 120° |
| 2026-05-06 09:14 | 24.72359 | 67.56000 | 6829 ft | 344 kts | 119° |
| 2026-05-06 09:15 | 24.71192 | 67.58314 | 6835 ft | 346 kts | 119° |
| 2026-05-06 09:15 | 24.70033 | 67.60626 | 7148 ft | 351 kts | 119° |
| 2026-05-06 09:15 | 24.68868 | 67.62972 | 7923 ft | 348 kts | 119° |
| 2026-05-06 09:15 | 24.67707 | 67.65314 | 8575 ft | 351 kts | 119° |
| 2026-05-06 09:16 | 24.66527 | 67.67690 | 9117 ft | 356 kts | 118° |
| 2026-05-06 09:16 | 24.65336 | 67.70088 | 9710 ft | 359 kts | 118° |
| 2026-05-06 09:16 | 24.64136 | 67.72502 | 10369 ft | 360 kts | 118° |
| 2026-05-06 09:16 | 24.62932 | 67.74918 | 11028 ft | 361 kts | 118° |
| 2026-05-06 09:17 | 24.61720 | 67.77347 | 11657 ft | 363 kts | 117° |
| 2026-05-06 09:17 | 24.60519 | 67.79755 | 12292 ft | 364 kts | 117° |
| 2026-05-06 09:17 | 24.59296 | 67.82207 | 12902 ft | 367 kts | 117° |
| 2026-05-06 09:17 | 24.58059 | 67.84689 | 13414 ft | 373 kts | 117° |
| 2026-05-06 09:18 | 24.56804 | 67.87208 | 13998 ft | 376 kts | 117° |
| 2026-05-06 09:18 | 24.55538 | 67.89745 | 14535 ft | 380 kts | 117° |
| 2026-05-06 09:18 | 24.54260 | 67.92304 | 15063 ft | 384 kts | 117° |
| 2026-05-06 09:18 | 24.52969 | 67.94888 | 15605 ft | 387 kts | 117° |
| 2026-05-06 09:19 | 24.51664 | 67.97496 | 16131 ft | 391 kts | 117° |
| 2026-05-06 09:19 | 24.50366 | 68.00089 | 16579 ft | 396 kts | 117° |
| 2026-05-06 09:19 | 24.49030 | 68.02759 | 17032 ft | 400 kts | 117° |
| 2026-05-06 09:19 | 24.47688 | 68.05436 | 17611 ft | 400 kts | 117° |
| 2026-05-06 09:20 | 24.46343 | 68.08118 | 18108 ft | 403 kts | 117° |
| 2026-05-06 09:20 | 24.44981 | 68.10836 | 18479 ft | 409 kts | 117° |
| 2026-05-06 09:20 | 24.43598 | 68.13590 | 18912 ft | 413 kts | 117° |
| 2026-05-06 09:20 | 24.42207 | 68.16359 | 19375 ft | 416 kts | 117° |
| 2026-05-06 09:21 | 24.40801 | 68.19154 | 19791 ft | 421 kts | 118° |
| 2026-05-06 09:21 | 24.39381 | 68.21975 | 20173 ft | 425 kts | 118° |
| 2026-05-06 09:21 | 24.37945 | 68.24828 | 20580 ft | 428 kts | 118° |
| 2026-05-06 09:21 | 24.36498 | 68.27701 | 20950 ft | 432 kts | 118° |
| 2026-05-06 09:22 | 24.35037 | 68.30602 | 21297 ft | 436 kts | 118° |
| 2026-05-06 09:22 | 24.33583 | 68.33487 | 21667 ft | 439 kts | 118° |
| 2026-05-06 09:22 | 24.32097 | 68.36435 | 22012 ft | 443 kts | 118° |
| 2026-05-06 09:22 | 24.30602 | 68.39398 | 22372 ft | 445 kts | 118° |
| 2026-05-06 09:23 | 24.29093 | 68.42386 | 22725 ft | 448 kts | 118° |
| 2026-05-06 09:23 | 24.27577 | 68.45386 | 23032 ft | 452 kts | 118° |
| 2026-05-06 09:23 | 24.26045 | 68.48418 | 23331 ft | 456 kts | 118° |
| 2026-05-06 09:23 | 24.24501 | 68.51470 | 23656 ft | 458 kts | 118° |
| 2026-05-06 09:24 | 24.22967 | 68.54498 | 23970 ft | 461 kts | 118° |
| 2026-05-06 09:24 | 24.21404 | 68.57585 | 24255 ft | 464 kts | 118° |
| 2026-05-06 09:24 | 24.19825 | 68.60700 | 24387 ft | 471 kts | 118° |
| 2026-05-06 09:24 | 24.18217 | 68.63870 | 24439 ft | 479 kts | 118° |
| 2026-05-06 09:25 | 24.16586 | 68.67085 | 24496 ft | 487 kts | 118° |
| 2026-05-06 09:25 | 24.14929 | 68.70343 | 24580 ft | 492 kts | 118° |
| 2026-05-06 09:25 | 24.13362 | 68.73689 | 24784 ft | 494 kts | 112° |
| 2026-05-06 09:25 | 24.12259 | 68.77248 | 25025 ft | 494 kts | 103° |
| 2026-05-06 09:26 | 24.11599 | 68.80937 | 25238 ft | 493 kts | 94° |
| 2026-05-06 09:26 | 24.11426 | 68.84686 | 25417 ft | 493 kts | 88° |
| 2026-05-06 09:26 | 24.11398 | 68.87180 | 25551 ft | 494 kts | 88° |
| 2026-05-06 09:26 | 24.11385 | 68.90950 | 25737 ft | 496 kts | 87° |
| 2026-05-06 09:27 | 24.11378 | 68.94739 | 25934 ft | 498 kts | 87° |
| 2026-05-06 09:27 | 24.11350 | 68.99780 | 26162 ft | 501 kts | 88° |
| 2026-05-06 09:27 | 24.11326 | 69.02362 | 26286 ft | 502 kts | 88° |
| 2026-05-06 09:27 | 24.11279 | 69.06196 | 26476 ft | 504 kts | 88° |
| 2026-05-06 09:28 | 24.11224 | 69.10040 | 26656 ft | 505 kts | 88° |
| 2026-05-06 09:28 | 24.11163 | 69.13901 | 26785 ft | 508 kts | 88° |
| 2026-05-06 09:28 | 24.11100 | 69.17726 | 26928 ft | 510 kts | 88° |
| 2026-05-06 09:28 | 24.11036 | 69.21612 | 27104 ft | 511 kts | 88° |
| 2026-05-06 09:29 | 24.10970 | 69.25516 | 27267 ft | 513 kts | 88° |
| 2026-05-06 09:29 | 24.10904 | 69.29426 | 27394 ft | 515 kts | 88° |
| 2026-05-06 09:29 | 24.10837 | 69.33359 | 27515 ft | 517 kts | 88° |
| 2026-05-06 09:29 | 24.10770 | 69.37305 | 27668 ft | 518 kts | 88° |
| 2026-05-06 09:30 | 24.10701 | 69.41255 | 27798 ft | 519 kts | 88° |
| 2026-05-06 09:30 | 24.10632 | 69.45218 | 27927 ft | 521 kts | 88° |
| 2026-05-06 09:30 | 24.10562 | 69.49134 | 28056 ft | 522 kts | 88° |
| 2026-05-06 09:30 | 24.10490 | 69.53113 | 28195 ft | 523 kts | 87° |
| 2026-05-06 09:31 | 24.10417 | 69.57095 | 28377 ft | 523 kts | 88° |
| 2026-05-06 09:31 | 24.10342 | 69.61077 | 28572 ft | 523 kts | 87° |
| 2026-05-06 09:31 | 24.10265 | 69.65066 | 28718 ft | 524 kts | 87° |
| 2026-05-06 09:31 | 24.10188 | 69.69052 | 28872 ft | 524 kts | 87° |
| 2026-05-06 09:32 | 24.10111 | 69.73037 | 29068 ft | 524 kts | 87° |
| 2026-05-06 09:32 | 24.10032 | 69.77031 | 29244 ft | 524 kts | 87° |
| 2026-05-06 09:32 | 24.09953 | 69.81016 | 29395 ft | 524 kts | 87° |
| 2026-05-06 09:32 | 24.09873 | 69.85016 | 29524 ft | 526 kts | 87° |
| 2026-05-06 09:33 | 24.09792 | 69.88969 | 29705 ft | 525 kts | 87° |
| 2026-05-06 09:33 | 24.09708 | 69.92960 | 29915 ft | 525 kts | 87° |
| 2026-05-06 09:33 | 24.09624 | 69.96958 | 30067 ft | 525 kts | 86° |
| 2026-05-06 09:33 | 24.09539 | 70.00969 | 30211 ft | 526 kts | 87° |
| 2026-05-06 09:34 | 24.09452 | 70.04969 | 30388 ft | 526 kts | 87° |
| 2026-05-06 09:34 | 24.09364 | 70.08978 | 30584 ft | 525 kts | 87° |
| 2026-05-06 09:34 | 24.09275 | 70.12977 | 30771 ft | 525 kts | 87° |
| 2026-05-06 09:34 | 24.09185 | 70.16979 | 30947 ft | 525 kts | 87° |
| 2026-05-06 09:35 | 24.09096 | 70.20932 | 31131 ft | 525 kts | 87° |
| 2026-05-06 09:35 | 24.09005 | 70.24938 | 31327 ft | 525 kts | 87° |
| 2026-05-06 09:35 | 24.08913 | 70.28925 | 31529 ft | 524 kts | 87° |
| 2026-05-06 09:35 | 24.08821 | 70.32925 | 31680 ft | 525 kts | 87° |
| 2026-05-06 09:36 | 24.08728 | 70.36923 | 31846 ft | 525 kts | 87° |
| 2026-05-06 09:36 | 24.08633 | 70.40916 | 32036 ft | 525 kts | 88° |
| 2026-05-06 09:36 | 24.08536 | 70.44908 | 32232 ft | 525 kts | 88° |
| 2026-05-06 09:36 | 24.08440 | 70.48849 | 32429 ft | 524 kts | 88° |
| 2026-05-06 09:37 | 24.08341 | 70.52829 | 32600 ft | 524 kts | 88° |
| 2026-05-06 09:37 | 24.08241 | 70.56821 | 32786 ft | 524 kts | 88° |
| 2026-05-06 09:37 | 24.08141 | 70.60813 | 32948 ft | 525 kts | 88° |
| 2026-05-06 09:37 | 24.08038 | 70.64818 | 33078 ft | 526 kts | 88° |
| 2026-05-06 09:38 | 24.07935 | 70.68814 | 33239 ft | 526 kts | 88° |
| 2026-05-06 09:38 | 24.07831 | 70.72816 | 33447 ft | 525 kts | 88° |
| 2026-05-06 09:38 | 24.07727 | 70.76807 | 33594 ft | 526 kts | 88° |
| 2026-05-06 09:38 | 24.07621 | 70.80818 | 33730 ft | 526 kts | 88° |
| 2026-05-06 09:39 | 24.07515 | 70.84824 | 33873 ft | 527 kts | 88° |
| 2026-05-06 09:39 | 24.07408 | 70.88835 | 34027 ft | 528 kts | 88° |
| 2026-05-06 09:39 | 24.07298 | 70.92844 | 34232 ft | 527 kts | 88° |
| 2026-05-06 09:39 | 24.07189 | 70.96851 | 34467 ft | 525 kts | 88° |
| 2026-05-06 09:40 | 24.07078 | 71.00800 | 34651 ft | 525 kts | 88° |
| 2026-05-06 09:40 | 24.06966 | 71.04790 | 34781 ft | 524 kts | 89° |
| 2026-05-06 09:40 | 24.06741 | 71.12784 | 34823 ft | 526 kts | 89° |
| 2026-05-06 09:41 | 24.06511 | 71.20791 | 34819 ft | 526 kts | 89° |
| 2026-05-06 09:41 | 24.06279 | 71.28764 | 34819 ft | 527 kts | 89° |
| 2026-05-06 09:42 | 24.06042 | 71.36787 | 34820 ft | 527 kts | 89° |
| 2026-05-06 09:42 | 24.05799 | 71.44827 | 34817 ft | 528 kts | 89° |
| 2026-05-06 09:43 | 24.05552 | 71.52861 | 34815 ft | 528 kts | 89° |
| 2026-05-06 09:43 | 24.05302 | 71.60834 | 34810 ft | 528 kts | 89° |
| 2026-05-06 09:44 | 24.05048 | 71.68870 | 34797 ft | 527 kts | 89° |
| 2026-05-06 09:44 | 24.04787 | 71.76886 | 34805 ft | 527 kts | 89° |
| 2026-05-06 09:45 | 24.04523 | 71.84896 | 34805 ft | 527 kts | 89° |
| 2026-05-06 09:45 | 24.04255 | 71.92904 | 34805 ft | 526 kts | 89° |
| 2026-05-06 09:46 | 24.03987 | 72.00884 | 34800 ft | 527 kts | 89° |
| 2026-05-06 09:46 | 24.03712 | 72.08899 | 34809 ft | 526 kts | 89° |
| 2026-05-06 09:47 | 24.03433 | 72.16909 | 34807 ft | 527 kts | 89° |
| 2026-05-06 09:47 | 24.03150 | 72.24865 | 34809 ft | 527 kts | 89° |
| 2026-05-06 09:48 | 24.02862 | 72.32872 | 34800 ft | 527 kts | 89° |
| 2026-05-06 09:48 | 24.02569 | 72.40889 | 34807 ft | 527 kts | 89° |
| 2026-05-06 09:49 | 24.02272 | 72.48919 | 34802 ft | 527 kts | 89° |
| 2026-05-06 09:49 | 24.01974 | 72.56878 | 34806 ft | 527 kts | 89° |
| 2026-05-06 09:50 | 24.01670 | 72.64891 | 34809 ft | 527 kts | 89° |
| 2026-05-06 09:50 | 24.01565 | 72.72924 | 34790 ft | 526 kts | 86° |
| 2026-05-06 09:51 | 24.01724 | 72.80923 | 34796 ft | 526 kts | 85° |
| 2026-05-06 09:51 | 24.01882 | 72.88867 | 34798 ft | 525 kts | 85° |
| 2026-05-06 09:52 | 24.01997 | 72.96859 | 34805 ft | 525 kts | 86° |
| 2026-05-06 09:52 | 24.02087 | 73.04856 | 34804 ft | 526 kts | 86° |
| 2026-05-06 09:53 | 24.02171 | 73.12865 | 34814 ft | 527 kts | 86° |
| 2026-05-06 09:53 | 24.02254 | 73.20893 | 34824 ft | 527 kts | 86° |
| 2026-05-06 09:54 | 24.02336 | 73.28879 | 34839 ft | 529 kts | 86° |
| 2026-05-06 09:54 | 24.02417 | 73.36944 | 34841 ft | 529 kts | 86° |
| 2026-05-06 09:55 | 24.02486 | 73.44988 | 34824 ft | 529 kts | 86° |
| 2026-05-06 09:55 | 24.02553 | 73.53040 | 34838 ft | 528 kts | 86° |
| 2026-05-06 09:56 | 24.02619 | 73.61038 | 34837 ft | 528 kts | 86° |
| 2026-05-06 09:56 | 24.02679 | 73.69093 | 34839 ft | 527 kts | 86° |
| 2026-05-06 09:57 | 24.02744 | 73.77120 | 34836 ft | 526 kts | 84° |
| 2026-05-06 09:57 | 24.04035 | 73.84851 | 34843 ft | 515 kts | 66° |
| 2026-05-06 09:58 | 24.06914 | 73.91936 | 34852 ft | 508 kts | 59° |
| 2026-05-06 09:58 | 24.09936 | 73.98948 | 34856 ft | 509 kts | 59° |
| 2026-05-06 09:59 | 24.12916 | 74.05999 | 34854 ft | 510 kts | 60° |
| 2026-05-06 09:59 | 24.15850 | 74.13040 | 34852 ft | 510 kts | 60° |
| 2026-05-06 10:00 | 24.18791 | 74.20130 | 34854 ft | 512 kts | 60° |
| 2026-05-06 10:00 | 24.21745 | 74.27258 | 34849 ft | 513 kts | 60° |
| 2026-05-06 10:01 | 24.24678 | 74.34350 | 34852 ft | 514 kts | 60° |
| 2026-05-06 10:01 | 24.27634 | 74.41498 | 34853 ft | 514 kts | 60° |
| 2026-05-06 10:02 | 24.30586 | 74.48647 | 34855 ft | 514 kts | 60° |
| 2026-05-06 10:02 | 24.33535 | 74.55800 | 34846 ft | 515 kts | 60° |
| 2026-05-06 10:03 | 24.36482 | 74.62964 | 34850 ft | 515 kts | 60° |
| 2026-05-06 10:03 | 24.39404 | 74.70077 | 34853 ft | 515 kts | 60° |
| 2026-05-06 10:04 | 24.42347 | 74.77251 | 34853 ft | 515 kts | 60° |
| 2026-05-06 10:04 | 24.45286 | 74.84428 | 34846 ft | 515 kts | 60° |
| 2026-05-06 10:05 | 24.48219 | 74.91605 | 34853 ft | 515 kts | 60° |
| 2026-05-06 10:05 | 24.51149 | 74.98781 | 34853 ft | 514 kts | 60° |
| 2026-05-06 10:06 | 24.54054 | 75.05911 | 34851 ft | 514 kts | 61° |
| 2026-05-06 10:06 | 24.56976 | 75.13094 | 34856 ft | 514 kts | 61° |
| 2026-05-06 10:07 | 24.59896 | 75.20283 | 34854 ft | 515 kts | 61° |
| 2026-05-06 10:07 | 24.62813 | 75.27475 | 34852 ft | 515 kts | 61° |
| 2026-05-06 10:08 | 24.65711 | 75.34637 | 34849 ft | 516 kts | 61° |
| 2026-05-06 10:08 | 24.68632 | 75.41861 | 34854 ft | 516 kts | 61° |
| 2026-05-06 10:09 | 24.71529 | 75.49041 | 34853 ft | 516 kts | 61° |
| 2026-05-06 10:09 | 24.74438 | 75.56261 | 34849 ft | 516 kts | 61° |
| 2026-05-06 10:10 | 24.77344 | 75.63485 | 34853 ft | 516 kts | 61° |
| 2026-05-06 10:10 | 24.80246 | 75.70714 | 34856 ft | 516 kts | 61° |
| 2026-05-06 10:11 | 24.83142 | 75.77936 | 34848 ft | 516 kts | 61° |
| 2026-05-06 10:11 | 24.86037 | 75.85174 | 34845 ft | 516 kts | 61° |
| 2026-05-06 10:12 | 24.88907 | 75.92355 | 34844 ft | 515 kts | 61° |
| 2026-05-06 10:12 | 24.91794 | 75.99592 | 34847 ft | 515 kts | 61° |
| 2026-05-06 10:13 | 24.94674 | 76.06822 | 34835 ft | 515 kts | 62° |
| 2026-05-06 10:13 | 24.97547 | 76.14050 | 34844 ft | 515 kts | 62° |
| 2026-05-06 10:14 | 25.00423 | 76.21297 | 34845 ft | 515 kts | 62° |
| 2026-05-06 10:14 | 25.02807 | 76.27316 | 34844 ft | 516 kts | 62° |
| 2026-05-06 10:15 | 25.06144 | 76.35754 | 34844 ft | 517 kts | 62° |
| 2026-05-06 10:15 | 25.08548 | 76.41839 | 34840 ft | 517 kts | 62° |
| 2026-05-06 10:16 | 25.11419 | 76.49120 | 34838 ft | 517 kts | 62° |
| 2026-05-06 10:16 | 25.14273 | 76.56371 | 34836 ft | 518 kts | 62° |
| 2026-05-06 10:17 | 25.17145 | 76.63678 | 34837 ft | 518 kts | 62° |
| 2026-05-06 10:17 | 25.20011 | 76.70978 | 34831 ft | 518 kts | 62° |
| 2026-05-06 10:18 | 25.22870 | 76.78287 | 34832 ft | 518 kts | 62° |
| 2026-05-06 10:18 | 25.25726 | 76.85596 | 34838 ft | 518 kts | 62° |
| 2026-05-06 10:19 | 25.28558 | 76.92857 | 34832 ft | 517 kts | 62° |
| 2026-05-06 10:19 | 25.31402 | 77.00164 | 34833 ft | 517 kts | 63° |
| 2026-05-06 10:20 | 25.34243 | 77.07465 | 34832 ft | 517 kts | 63° |
| 2026-05-06 10:20 | 25.37074 | 77.14757 | 34840 ft | 516 kts | 63° |
| 2026-05-06 10:21 | 25.39908 | 77.22064 | 34839 ft | 516 kts | 63° |
| 2026-05-06 10:21 | 25.42718 | 77.29326 | 34834 ft | 516 kts | 63° |
| 2026-05-06 10:22 | 25.45537 | 77.36631 | 34830 ft | 516 kts | 63° |
| 2026-05-06 10:22 | 25.48354 | 77.43936 | 34820 ft | 516 kts | 63° |
| 2026-05-06 10:23 | 25.51170 | 77.51251 | 34832 ft | 516 kts | 63° |
| 2026-05-06 10:23 | 25.53984 | 77.58576 | 34819 ft | 517 kts | 63° |
| 2026-05-06 10:24 | 25.56797 | 77.65913 | 34820 ft | 517 kts | 63° |
| 2026-05-06 10:24 | 25.59587 | 77.73201 | 34816 ft | 517 kts | 63° |
| 2026-05-06 10:25 | 25.62395 | 77.80552 | 34834 ft | 517 kts | 63° |
| 2026-05-06 10:25 | 25.65205 | 77.87915 | 34829 ft | 517 kts | 63° |
| 2026-05-06 10:26 | 25.68002 | 77.95263 | 34815 ft | 517 kts | 63° |
| 2026-05-06 10:26 | 25.70796 | 78.02615 | 34823 ft | 517 kts | 64° |
| 2026-05-06 10:27 | 25.73562 | 78.09908 | 34821 ft | 516 kts | 64° |
| 2026-05-06 10:27 | 25.76346 | 78.17260 | 34832 ft | 516 kts | 64° |
| 2026-05-06 10:28 | 25.79130 | 78.24618 | 34830 ft | 516 kts | 64° |
| 2026-05-06 10:28 | 25.81906 | 78.31975 | 34821 ft | 517 kts | 64° |
| 2026-05-06 10:29 | 25.84679 | 78.39336 | 34819 ft | 517 kts | 64° |
| 2026-05-06 10:29 | 25.87434 | 78.46662 | 34821 ft | 517 kts | 64° |
| 2026-05-06 10:30 | 25.90204 | 78.54043 | 34823 ft | 517 kts | 64° |
| 2026-05-06 10:30 | 25.92970 | 78.61426 | 34823 ft | 517 kts | 64° |
| 2026-05-06 10:31 | 25.95733 | 78.68814 | 34818 ft | 518 kts | 64° |
| 2026-05-06 10:31 | 25.98478 | 78.76167 | 34833 ft | 518 kts | 64° |
| 2026-05-06 10:32 | 26.01242 | 78.83585 | 34830 ft | 518 kts | 64° |
| 2026-05-06 10:32 | 26.04000 | 78.91001 | 34828 ft | 519 kts | 64° |
| 2026-05-06 10:33 | 26.06755 | 78.98423 | 34826 ft | 519 kts | 64° |
| 2026-05-06 10:33 | 26.09507 | 79.05849 | 34828 ft | 519 kts | 64° |
| 2026-05-06 10:34 | 26.12236 | 79.13231 | 34818 ft | 519 kts | 64° |
| 2026-05-06 10:34 | 26.14977 | 79.20654 | 34813 ft | 518 kts | 65° |
| 2026-05-06 10:35 | 26.17717 | 79.28089 | 34806 ft | 519 kts | 65° |
| 2026-05-06 10:35 | 26.20450 | 79.35523 | 34795 ft | 519 kts | 65° |
| 2026-05-06 10:36 | 26.23186 | 79.42972 | 34790 ft | 519 kts | 65° |
| 2026-05-06 10:36 | 26.25914 | 79.50416 | 34784 ft | 519 kts | 65° |
| 2026-05-06 10:37 | 26.28641 | 79.57873 | 34789 ft | 519 kts | 65° |
| 2026-05-06 10:37 | 26.31349 | 79.65288 | 34785 ft | 520 kts | 65° |
| 2026-05-06 10:38 | 26.34085 | 79.72798 | 34781 ft | 519 kts | 65° |
| 2026-05-06 10:38 | 26.36782 | 79.80215 | 34776 ft | 520 kts | 65° |
| 2026-05-06 10:39 | 26.39511 | 79.87733 | 34782 ft | 520 kts | 65° |
| 2026-05-06 10:39 | 26.42222 | 79.95211 | 34774 ft | 520 kts | 65° |
| 2026-05-06 10:40 | 26.44916 | 80.02662 | 34757 ft | 521 kts | 66° |
| 2026-05-06 10:40 | 26.47620 | 80.10159 | 34758 ft | 521 kts | 66° |
| 2026-05-06 10:41 | 26.50322 | 80.17662 | 34758 ft | 521 kts | 66° |
| 2026-05-06 10:41 | 26.53019 | 80.25160 | 34759 ft | 520 kts | 66° |
| 2026-05-06 10:42 | 26.55717 | 80.32680 | 34756 ft | 521 kts | 66° |
| 2026-05-06 10:42 | 26.58393 | 80.40151 | 34750 ft | 521 kts | 66° |
| 2026-05-06 10:43 | 26.61083 | 80.47676 | 34750 ft | 521 kts | 66° |
| 2026-05-06 10:44 | 26.65108 | 80.58972 | 34752 ft | 521 kts | 66° |
| 2026-05-06 10:44 | 26.67779 | 80.66476 | 34749 ft | 521 kts | 66° |
| 2026-05-06 10:45 | 26.70454 | 80.74008 | 34750 ft | 521 kts | 66° |
| 2026-05-06 10:45 | 26.73130 | 80.81564 | 34749 ft | 522 kts | 66° |
| 2026-05-06 10:46 | 26.75698 | 80.89154 | 34742 ft | 523 kts | 72° |
| 2026-05-06 10:46 | 26.76966 | 80.97177 | 34756 ft | 524 kts | 83° |
| 2026-05-06 10:47 | 26.77789 | 81.05298 | 34749 ft | 524 kts | 83° |
| 2026-05-06 10:47 | 26.78621 | 81.13404 | 34749 ft | 525 kts | 83° |
| 2026-05-06 10:48 | 26.79502 | 81.21484 | 34747 ft | 526 kts | 83° |
| 2026-05-06 10:48 | 26.80413 | 81.29626 | 34750 ft | 526 kts | 83° |
| 2026-05-06 10:49 | 26.81319 | 81.37765 | 34749 ft | 527 kts | 83° |
| 2026-05-06 10:49 | 26.82213 | 81.45855 | 34748 ft | 527 kts | 83° |
| 2026-05-06 10:50 | 26.83105 | 81.54001 | 34748 ft | 526 kts | 83° |
| 2026-05-06 10:50 | 26.83990 | 81.62140 | 34748 ft | 526 kts | 83° |
| 2026-05-06 10:51 | 26.84870 | 81.70267 | 34750 ft | 526 kts | 83° |
| 2026-05-06 10:51 | 26.85746 | 81.78409 | 34748 ft | 526 kts | 83° |
| 2026-05-06 10:52 | 26.86619 | 81.86550 | 34750 ft | 526 kts | 83° |
| 2026-05-06 10:52 | 26.87483 | 81.94648 | 34747 ft | 526 kts | 83° |
| 2026-05-06 10:53 | 26.88346 | 82.02786 | 34751 ft | 526 kts | 84° |
| 2026-05-06 10:53 | 26.89204 | 82.10936 | 34748 ft | 526 kts | 84° |
| 2026-05-06 10:54 | 26.90055 | 82.19076 | 34749 ft | 526 kts | 84° |
| 2026-05-06 10:54 | 26.90902 | 82.27211 | 34752 ft | 526 kts | 84° |
| 2026-05-06 10:55 | 26.91745 | 82.35327 | 34750 ft | 527 kts | 84° |
| 2026-05-06 10:55 | 26.92585 | 82.43484 | 34751 ft | 527 kts | 84° |
| 2026-05-06 10:56 | 26.93421 | 82.51657 | 34752 ft | 528 kts | 84° |
| 2026-05-06 10:56 | 26.94254 | 82.59834 | 34749 ft | 528 kts | 84° |
| 2026-05-06 10:57 | 26.95082 | 82.68002 | 34746 ft | 527 kts | 84° |
| 2026-05-06 10:57 | 26.95904 | 82.76171 | 34749 ft | 527 kts | 84° |
| 2026-05-06 10:58 | 26.96714 | 82.84285 | 34756 ft | 527 kts | 84° |
| 2026-05-06 10:58 | 26.97525 | 82.92443 | 34757 ft | 527 kts | 85° |
| 2026-05-06 10:59 | 26.98334 | 83.00613 | 34757 ft | 527 kts | 85° |
| 2026-05-06 10:59 | 26.99137 | 83.08787 | 34749 ft | 527 kts | 85° |
| 2026-05-06 11:00 | 26.99937 | 83.16969 | 34752 ft | 527 kts | 85° |
| 2026-05-06 11:00 | 27.00726 | 83.25093 | 34750 ft | 527 kts | 85° |
| 2026-05-06 11:01 | 27.01515 | 83.33278 | 34748 ft | 528 kts | 85° |
| 2026-05-06 11:01 | 27.02173 | 83.40139 | 34751 ft | 528 kts | 85° |
| 2026-05-06 11:02 | 27.03081 | 83.49664 | 34750 ft | 528 kts | 85° |
| 2026-05-06 11:02 | 27.03727 | 83.56471 | 34749 ft | 528 kts | 85° |
| 2026-05-06 11:03 | 27.04500 | 83.64665 | 34730 ft | 528 kts | 85° |
| 2026-05-06 11:03 | 27.04887 | 83.68803 | 34109 ft | 536 kts | 85° |
| 2026-05-06 11:03 | 27.05277 | 83.72970 | 33423 ft | 536 kts | 85° |
| 2026-05-06 11:03 | 27.05665 | 83.77133 | 32688 ft | 537 kts | 85° |
| 2026-05-06 11:04 | 27.06048 | 83.81254 | 31988 ft | 536 kts | 85° |
| 2026-05-06 11:04 | 27.06432 | 83.85397 | 31463 ft | 531 kts | 85° |
| 2026-05-06 11:04 | 27.06811 | 83.89493 | 30912 ft | 526 kts | 85° |
| 2026-05-06 11:04 | 27.07185 | 83.93557 | 30371 ft | 521 kts | 85° |
| 2026-05-06 11:05 | 27.07556 | 83.97594 | 29830 ft | 516 kts | 85° |
| 2026-05-06 11:05 | 27.07921 | 84.01591 | 29285 ft | 512 kts | 85° |
| 2026-05-06 11:05 | 27.08281 | 84.05541 | 28730 ft | 507 kts | 86° |
| 2026-05-06 11:05 | 27.08637 | 84.09462 | 28172 ft | 502 kts | 86° |
| 2026-05-06 11:06 | 27.08989 | 84.13341 | 27622 ft | 497 kts | 86° |
| 2026-05-06 11:06 | 27.09335 | 84.17180 | 27071 ft | 492 kts | 86° |
| 2026-05-06 11:06 | 27.09678 | 84.20986 | 26522 ft | 487 kts | 86° |
| 2026-05-06 11:06 | 27.10011 | 84.24700 | 25984 ft | 482 kts | 86° |
| 2026-05-06 11:07 | 27.10345 | 84.28426 | 25442 ft | 477 kts | 86° |
| 2026-05-06 11:07 | 27.10674 | 84.32122 | 24900 ft | 473 kts | 86° |
| 2026-05-06 11:07 | 27.10999 | 84.35777 | 24364 ft | 468 kts | 86° |
| 2026-05-06 11:07 | 27.11319 | 84.39390 | 23831 ft | 463 kts | 86° |
| 2026-05-06 11:08 | 27.11636 | 84.42968 | 23302 ft | 458 kts | 86° |
| 2026-05-06 11:08 | 27.11948 | 84.46515 | 22775 ft | 454 kts | 86° |
| 2026-05-06 11:08 | 27.12258 | 84.50033 | 22245 ft | 449 kts | 86° |
| 2026-05-06 11:08 | 27.12562 | 84.53507 | 21724 ft | 445 kts | 86° |
| 2026-05-06 11:09 | 27.12860 | 84.56941 | 21206 ft | 440 kts | 86° |
| 2026-05-06 11:09 | 27.13153 | 84.60301 | 20694 ft | 436 kts | 85° |
| 2026-05-06 11:09 | 27.13447 | 84.63668 | 20185 ft | 431 kts | 85° |
| 2026-05-06 11:09 | 27.13736 | 84.67006 | 19674 ft | 427 kts | 85° |
| 2026-05-06 11:10 | 27.14022 | 84.70313 | 19168 ft | 423 kts | 85° |
| 2026-05-06 11:10 | 27.14304 | 84.73589 | 18664 ft | 419 kts | 85° |
| 2026-05-06 11:10 | 27.14582 | 84.76822 | 18162 ft | 412 kts | 85° |
| 2026-05-06 11:10 | 27.14851 | 84.79956 | 17671 ft | 403 kts | 85° |
| 2026-05-06 11:11 | 27.15117 | 84.83062 | 17187 ft | 394 kts | 85° |
| 2026-05-06 11:11 | 27.15375 | 84.86092 | 16714 ft | 386 kts | 85° |
| 2026-05-06 11:11 | 27.15628 | 84.89064 | 16253 ft | 379 kts | 85° |
| 2026-05-06 11:11 | 27.15877 | 84.91992 | 15798 ft | 371 kts | 85° |
| 2026-05-06 11:12 | 27.16128 | 84.94861 | 15359 ft | 367 kts | 83° |
| 2026-05-06 11:12 | 27.16732 | 84.97639 | 14919 ft | 366 kts | 70° |
| 2026-05-06 11:12 | 27.17809 | 85.00210 | 14656 ft | 361 kts | 59° |
| 2026-05-06 11:12 | 27.19261 | 85.02485 | 14404 ft | 357 kts | 52° |
| 2026-05-06 11:13 | 27.20783 | 85.04632 | 14154 ft | 354 kts | 51° |
| 2026-05-06 11:13 | 27.22324 | 85.06784 | 13920 ft | 355 kts | 51° |
| 2026-05-06 11:13 | 27.23874 | 85.08970 | 13680 ft | 358 kts | 52° |
| 2026-05-06 11:13 | 27.25415 | 85.11171 | 13428 ft | 358 kts | 52° |
| 2026-05-06 11:14 | 27.26944 | 85.13371 | 13181 ft | 355 kts | 52° |
| 2026-05-06 11:14 | 27.28459 | 85.15555 | 12926 ft | 353 kts | 51° |
| 2026-05-06 11:14 | 27.30180 | 85.17514 | 12670 ft | 351 kts | 38° |
| 2026-05-06 11:14 | 27.32221 | 85.18995 | 12426 ft | 349 kts | 25° |
| 2026-05-06 11:15 | 27.34464 | 85.20010 | 12187 ft | 346 kts | 17° |
| 2026-05-06 11:15 | 27.36803 | 85.20627 | 11942 ft | 344 kts | 8° |
| 2026-05-06 11:15 | 27.39176 | 85.20910 | 11690 ft | 343 kts | 1° |
| 2026-05-06 11:15 | 27.41559 | 85.20894 | 11451 ft | 342 kts | 358° |
| 2026-05-06 11:16 | 27.43934 | 85.20872 | 11209 ft | 341 kts | 359° |
| 2026-05-06 11:16 | 27.46269 | 85.21066 | 10953 ft | 340 kts | 9° |
| 2026-05-06 11:16 | 27.48538 | 85.21704 | 10719 ft | 333 kts | 17° |
| 2026-05-06 11:16 | 27.50730 | 85.22465 | 10470 ft | 327 kts | 16° |
| 2026-05-06 11:17 | 27.52895 | 85.23204 | 10247 ft | 322 kts | 18° |
| 2026-05-06 11:17 | 27.54911 | 85.24215 | 9995 ft | 314 kts | 37° |
| 2026-05-06 11:17 | 27.56239 | 85.26037 | 9966 ft | 294 kts | 68° |
| 2026-05-06 11:17 | 27.56597 | 85.28259 | 9644 ft | 286 kts | 92° |
| 2026-05-06 11:18 | 27.56883 | 85.30422 | 9436 ft | 278 kts | 66° |
| 2026-05-06 11:18 | 27.57859 | 85.32256 | 9252 ft | 271 kts | 52° |
| 2026-05-06 11:18 | 27.59056 | 85.33876 | 9045 ft | 267 kts | 49° |
| 2026-05-06 11:18 | 27.60265 | 85.35436 | 8830 ft | 261 kts | 49° |
| 2026-05-06 11:19 | 27.61434 | 85.36985 | 8649 ft | 257 kts | 50° |
| 2026-05-06 11:19 | 27.62533 | 85.38543 | 8447 ft | 255 kts | 60° |
| 2026-05-06 11:19 | 27.63064 | 85.40415 | 8292 ft | 247 kts | 75° |
| 2026-05-06 11:19 | 27.63934 | 85.42010 | 8109 ft | 236 kts | 37° |
| 2026-05-06 11:20 | 27.65204 | 85.43129 | 7986 ft | 229 kts | 39° |
| 2026-05-06 11:20 | 27.66366 | 85.44310 | 7790 ft | 221 kts | 44° |
| 2026-05-06 11:20 | 27.67436 | 85.45500 | 7626 ft | 211 kts | 45° |
| 2026-05-06 11:20 | 27.68532 | 85.46529 | 7464 ft | 200 kts | 30° |
| 2026-05-06 11:21 | 27.69777 | 85.47130 | 7236 ft | 190 kts | 13° |
| 2026-05-06 11:21 | 27.71065 | 85.47268 | 7074 ft | 184 kts | 354° |
| 2026-05-06 11:21 | 27.72292 | 85.46966 | 6813 ft | 177 kts | 336° |
| 2026-05-06 11:21 | 27.73339 | 85.46288 | 6602 ft | 172 kts | 319° |
| 2026-05-06 11:22 | 27.74162 | 85.45332 | 6371 ft | 168 kts | 304° |
| 2026-05-06 11:22 | 27.74711 | 85.44177 | 6146 ft | 164 kts | 288° |
| 2026-05-06 11:22 | 27.74951 | 85.42922 | 5829 ft | 163 kts | 271° |
| 2026-05-06 11:22 | 27.74888 | 85.41690 | 5655 ft | 155 kts | 260° |
| 2026-05-06 11:23 | 27.74554 | 85.40525 | 5510 ft | 159 kts | 249° |
| 2026-05-06 11:23 | 27.74009 | 85.39444 | 5310 ft | 161 kts | 242° |
| 2026-05-06 11:23 | 27.73444 | 85.38353 | 5200 ft | 158 kts | 241° |
| 2026-05-06 11:23 | 27.72774 | 85.37398 | 5038 ft | 161 kts | 223° |
| 2026-05-06 11:24 | 27.71735 | 85.36794 | 4797 ft | 174 kts | 201° |
| 2026-05-06 11:24 | 27.70591 | 85.36331 | 4395 ft | 172 kts | 206° |
| 2026-05-06 11:24 | 27.69645 | 85.35882 | 4355 ft | 117 kts | 201° |
| 2026-05-06 11:24 | 27.69074 | 85.35649 | 4334 ft | 57 kts | 201° |
| 2026-05-06 11:25 | 27.68875 | 85.35559 | 4336 ft | 20 kts | 202° |
| 2026-05-06 11:25 | 27.68703 | 85.35480 | 4330 ft | 28 kts | 202° |
| 2026-05-06 11:25 | 27.68527 | 85.35403 | 4324 ft | 25 kts | 198° |
| 2026-05-06 11:25 | 27.68416 | 85.35335 | 4323 ft | 13 kts | 274° |
| 2026-05-06 11:26 | 27.68457 | 85.35338 | 4324 ft | 6 kts | 50° |
| 2026-05-06 11:26 | 27.68485 | 85.35371 | 4325 ft | 8 kts | 41° |
| 2026-05-06 11:26 | 27.68549 | 85.35410 | 4327 ft | 13 kts | 21° |
| 2026-05-06 11:26 | 27.68652 | 85.35453 | 4329 ft | 18 kts | 20° |
| 2026-05-06 11:27 | 27.68773 | 85.35508 | 4332 ft | 18 kts | 22° |
| 2026-05-06 11:27 | 27.68878 | 85.35558 | 4336 ft | 15 kts | 23° |
| 2026-05-06 11:27 | 27.68968 | 85.35602 | 4338 ft | 14 kts | 23° |
| 2026-05-06 11:27 | 27.69054 | 85.35603 | 4340 ft | 13 kts | 321° |
| 2026-05-06 11:28 | 27.69124 | 85.35560 | 4343 ft | 10 kts | 2° |
| 2026-05-06 11:28 | 27.69175 | 85.35575 | 4345 ft | 5 kts | 21° |
| 2026-05-06 11:28 | 27.69201 | 85.35586 | 4346 ft | 5 kts | 21° |
| 2026-05-06 11:28 | 27.69265 | 85.35614 | 4348 ft | 15 kts | 21° |
| 2026-05-06 11:29 | 27.69390 | 85.35668 | 4352 ft | 24 kts | 21° |
| 2026-05-06 11:29 | 27.69566 | 85.35744 | 4358 ft | 31 kts | 20° |
| 2026-05-06 11:29 | 27.69788 | 85.35838 | 4365 ft | 35 kts | 20° |
| 2026-05-06 11:29 | 27.69914 | 85.35891 | 4369 ft | 3 kts | 20° |
| 2026-05-06 11:30 | 27.69923 | 85.35894 | 4369 ft | 0 kts | 20° |
| 2026-05-06 11:31 | 27.69924 | 85.35895 | 4369 ft | 1 kts | 19° |
| 2026-05-06 11:31 | 27.69955 | 85.35893 | 4370 ft | 5 kts | 342° |
| 2026-05-06 11:31 | 27.69970 | 85.35881 | 4370 ft | 1 kts | 315° |
| 2026-05-06 11:31 | 27.69983 | 85.35858 | 4370 ft | 5 kts | 298° |
| 2026-05-06 11:32 | 27.69992 | 85.35836 | 4370 ft | 0 kts | 295° |